Terminal Aerodrome Forecast
Issued by NWS

Home | Current Version | Previous Version | Text Only | Print | Product List | Glossary On
Versions: 1 2 3 4 5 6 7 8 9 10 11 12 13 14
000
FTUS46 KPDT 301604 AAA
TAFRDM
TAF AMD
KRDM 301604Z 3016/3112 34011G18KT P6SM -SHRA BKN035 OVC060
     FM302000 28012G18KT P6SM SCT060 BKN100
     FM310200 31008KT P6SM SCT060 BKN150
     FM310700 17005KT P6SM SCT090 SCT150=

USA.gov is the U.S. government's official web portal to all federal, state and local government web resources and services.